Girolata — FPOD — position and weather

sailwx.info

Track history (hours):
 
Tides and Currents Weather Stations Pressure Air Temp Water Temp Dewpoint Dewpoint Depression Visibility Wind Speed Wind Dir Waves Ship Positions

Girolata

Last reported at 2020-Jul-11 02:20 UTC. Time now 2020-Jul-11 07:17 UTC.
Position N 38°47' E 013°51'.

Length 177 m; beam 27 m.

Type: Passenger vessel. MMSI: 226245000.

Date/timePositionNaut miles runAvg speedWind from/ knotsBaromVisibWave heightAir tempDewpointWater temp
2020-Jul-11 02:20N 38°47' E 013°51'720.3
2020-Jul-11 02:00N 38°40' E 013°50'2020.6
2020-Jul-11 01:00N 38°20' E 013°47'21 8.2
2020-Jul-10 22:26N 37°59' E 013°42'23 7.8
2020-Jul-10 19:30N 38°21' E 013°33'1019.6
2020-Jul-10 19:00N 38°30' E 013°28'11019.9
2020-Jul-10 13:30N 40°13' E 012°38'3020.2
2020-Jul-10 12:00N 40°41' E 012°24'2620.7
2020-Jul-10 10:45N 41°05' E 012°12'36 1.6
2020-Jul-09 12:30N 41°39' E 011°55'1020.2
2020-Jul-09 12:00N 41°30' E 011°60'1020.3
2020-Jul-09 11:30N 41°20' E 012°04'5220.7
2020-Jul-09 09:00N 40°32' E 012°29'1120.9
2020-Jul-09 08:30N 40°22' E 012°34'11520.9
2020-Jul-09 03:00N 38°35' E 013°27'37 7.5
2020-Jul-08 22:00N 37°59' E 013°42'1 0.9
2020-Jul-08 20:30N 37°60' E 013°44'14120.6
2020-Jul-08 13:38N 40°12' E 012°39'320.8
2020-Jul-08 13:29N 40°15' E 012°37'1020.6
2020-Jul-08 13:00N 40°24' E 012°33'1020.6
2020-Jul-08 12:30N 40°33' E 012°28'67 2.7
2020-Jul-07 11:29N 41°36' E 011°57'13920.7
2020-Jul-07 04:45N 39°26' E 013°02'4021.0
2020-Jul-07 02:50N 38°48' E 013°20'5118.2
2020-Jul-07 00:01N 37°59' E 013°42'0 0.0
2020-Jul-06 22:30N 37°59' E 013°42'0 0.0
2020-Jul-06 19:00N 37°59' E 013°42'0 0.0
2020-Jul-06 18:30N 37°59' E 013°42'0 0.0
2020-Jul-06 17:30N 37°59' E 013°42'0 0.0
2020-Jul-06 17:00N 37°59' E 013°42'0 0.0
2020-Jul-06 12:00N 37°59' E 013°42'0 0.0
2020-Jul-06 11:00N 37°59' E 013°42'0 0.0
2020-Jul-06 10:00N 37°59' E 013°42'0 0.0
2020-Jul-06 09:30N 37°59' E 013°42'1 1.5
2020-Jul-06 08:30N 37°60' E 013°44'918.1
2020-Jul-06 08:01N 38°08' E 013°40'13720.7
2020-Jul-06 01:23N 40°15' E 012°35'7020.7
2020-Jul-05 22:01N 41°21' E 012°04'51 4.4
2020-Jul-05 10:25N 40°33' E 012°28'11320.9
2020-Jul-05 05:02N 38°48' E 013°19'2120.3
2020-Jul-05 04:01N 38°29' E 013°29'2120.8
2020-Jul-05 03:00N 38°09' E 013°39'1010.2
2020-Jul-05 02:00N 37°59' E 013°42'0 0.1
2020-Jul-04 22:31N 37°59' E 013°43'4016.0
2020-Jul-04 20:00N 38°39' E 013°50'1 0.0
2020-Jul-04 02:34N 38°40' E 013°50'1321.7
2020-Jul-04 01:59N 38°27' E 013°48'28 6.2
2020-Jul-03 21:30N 37°59' E 013°42'0 0.0
2020-Jul-03 21:00N 37°59' E 013°42'25020.1
2020-Jul-03 08:32N 41°54' E 011°47'011.2
2020-Jul-03 08:31N 41°54' E 011°47'30 1.4
2020-Jul-02 11:30N 41°26' E 012°02'1020.2
2020-Jul-02 11:00N 41°16' E 012°06'1121.5
2020-Jul-02 10:30N 41°07' E 012°12'2121.4
2020-Jul-02 09:30N 40°46' E 012°21'1121.2
2020-Jul-02 09:00N 40°36' E 012°25'10621.2
2020-Jul-02 04:00N 38°57' E 013°15'1121.2
2020-Jul-02 03:31N 38°48' E 013°20'2121.2
2020-Jul-02 02:30N 38°28' E 013°31'2121.4
2020-Jul-02 01:30N 38°08' E 013°40'9 4.2
2020-Jul-01 23:24N 37°59' E 013°42'14314.5
2020-Jul-01 13:30N 40°13' E 012°38'  
Track history (hours):
 
Tides and Currents Weather Stations Pressure Air Temp Water Temp Dewpoint Dewpoint Depression Visibility Wind Speed Wind Dir Waves Ship Positions

Girolata

Last reported at 2020-Jul-11 02:20 UTC. Time now 2020-Jul-11 07:17 UTC.
Position N 38°47' E 013°51'.

Length 177 m; beam 27 m.

Type: Passenger vessel. MMSI: 226245000.

Date/timePositionNaut miles runAvg speedWind from/ knotsBaromVisibWave heightAir tempDewpointWater temp
2020-Jul-11 02:20N 38°47' E 013°51'720.3
2020-Jul-11 02:00N 38°40' E 013°50'2020.6
2020-Jul-11 01:00N 38°20' E 013°47'21 8.2
2020-Jul-10 22:26N 37°59' E 013°42'23 7.8
2020-Jul-10 19:30N 38°21' E 013°33'1019.6
2020-Jul-10 19:00N 38°30' E 013°28'11019.9
2020-Jul-10 13:30N 40°13' E 012°38'3020.2
2020-Jul-10 12:00N 40°41' E 012°24'2620.7
2020-Jul-10 10:45N 41°05' E 012°12'36 1.6
2020-Jul-09 12:30N 41°39' E 011°55'1020.2
2020-Jul-09 12:00N 41°30' E 011°60'1020.3
2020-Jul-09 11:30N 41°20' E 012°04'5220.7
2020-Jul-09 09:00N 40°32' E 012°29'1120.9
2020-Jul-09 08:30N 40°22' E 012°34'11520.9
2020-Jul-09 03:00N 38°35' E 013°27'37 7.5
2020-Jul-08 22:00N 37°59' E 013°42'1 0.9
2020-Jul-08 20:30N 37°60' E 013°44'14120.6
2020-Jul-08 13:38N 40°12' E 012°39'320.8
2020-Jul-08 13:29N 40°15' E 012°37'1020.6
2020-Jul-08 13:00N 40°24' E 012°33'1020.6
2020-Jul-08 12:30N 40°33' E 012°28'67 2.7
2020-Jul-07 11:29N 41°36' E 011°57'13920.7
2020-Jul-07 04:45N 39°26' E 013°02'4021.0
2020-Jul-07 02:50N 38°48' E 013°20'5118.2
2020-Jul-07 00:01N 37°59' E 013°42'0 0.0
2020-Jul-06 22:30N 37°59' E 013°42'0 0.0
2020-Jul-06 19:00N 37°59' E 013°42'0 0.0
2020-Jul-06 18:30N 37°59' E 013°42'0 0.0
2020-Jul-06 17:30N 37°59' E 013°42'0 0.0
2020-Jul-06 17:00N 37°59' E 013°42'0 0.0
2020-Jul-06 12:00N 37°59' E 013°42'0 0.0
2020-Jul-06 11:00N 37°59' E 013°42'0 0.0
2020-Jul-06 10:00N 37°59' E 013°42'0 0.0
2020-Jul-06 09:30N 37°59' E 013°42'1 1.5
2020-Jul-06 08:30N 37°60' E 013°44'918.1
2020-Jul-06 08:01N 38°08' E 013°40'13720.7
2020-Jul-06 01:23N 40°15' E 012°35'7020.7
2020-Jul-05 22:01N 41°21' E 012°04'51 4.4
2020-Jul-05 10:25N 40°33' E 012°28'11320.9
2020-Jul-05 05:02N 38°48' E 013°19'2120.3
2020-Jul-05 04:01N 38°29' E 013°29'2120.8
2020-Jul-05 03:00N 38°09' E 013°39'1010.2
2020-Jul-05 02:00N 37°59' E 013°42'0 0.1
2020-Jul-04 22:31N 37°59' E 013°43'4016.0
2020-Jul-04 20:00N 38°39' E 013°50'1 0.0
2020-Jul-04 02:34N 38°40' E 013°50'1321.7
2020-Jul-04 01:59N 38°27' E 013°48'28 6.2
2020-Jul-03 21:30N 37°59' E 013°42'0 0.0
2020-Jul-03 21:00N 37°59' E 013°42'25020.1
2020-Jul-03 08:32N 41°54' E 011°47'011.2
2020-Jul-03 08:31N 41°54' E 011°47'30 1.4
2020-Jul-02 11:30N 41°26' E 012°02'1020.2
2020-Jul-02 11:00N 41°16' E 012°06'1121.5
2020-Jul-02 10:30N 41°07' E 012°12'2121.4
2020-Jul-02 09:30N 40°46' E 012°21'1121.2
2020-Jul-02 09:00N 40°36' E 012°25'10621.2
2020-Jul-02 04:00N 38°57' E 013°15'1121.2
2020-Jul-02 03:31N 38°48' E 013°20'2121.2
2020-Jul-02 02:30N 38°28' E 013°31'2121.4
2020-Jul-02 01:30N 38°08' E 013°40'9 4.2
2020-Jul-01 23:24N 37°59' E 013°42'14314.5
2020-Jul-01 13:30N 40°13' E 012°38'  

Dump ship's entire track history